createdAt,value
2024-03-15T00:01:00.104Z,21.18
2024-03-15T00:03:32.886Z,21.18
2024-03-15T00:06:06.294Z,21.15
2024-03-15T00:08:40.711Z,21.30
2024-03-15T00:11:13.659Z,21.33
2024-03-15T00:13:46.874Z,21.27
2024-03-15T00:16:20.258Z,20.88
2024-03-15T00:18:54.895Z,21.00
2024-03-15T00:21:27.798Z,21.25
2024-03-15T00:24:00.925Z,21.40
2024-03-15T00:26:35.029Z,21.30
2024-03-15T00:29:07.827Z,21.22
2024-03-15T00:31:41.652Z,21.18
2024-03-15T00:34:14.675Z,20.97
2024-03-15T00:36:48.661Z,21.00
2024-03-15T00:39:22.480Z,21.22
2024-03-15T00:41:56.257Z,21.31
2024-03-15T00:44:29.108Z,21.33
2024-03-15T00:47:01.872Z,21.35
2024-03-15T00:49:35.743Z,21.37
2024-03-15T00:52:08.692Z,21.36
2024-03-15T00:54:41.569Z,21.36
2024-03-15T00:57:15.125Z,21.33
2024-03-15T00:59:48.140Z,21.32
2024-03-15T01:02:21.252Z,21.32
2024-03-15T01:04:54.163Z,21.32
2024-03-15T01:07:27.731Z,21.30
2024-03-15T01:10:00.698Z,21.25
2024-03-15T01:12:35.436Z,21.27
2024-03-15T01:15:08.605Z,21.20
2024-03-15T01:17:41.801Z,21.21
2024-03-15T01:20:15.781Z,21.23
2024-03-15T01:22:48.811Z,21.15
2024-03-15T01:25:21.572Z,21.11
2024-03-15T01:27:54.415Z,21.10
2024-03-15T01:30:27.310Z,21.13
2024-03-15T01:33:00.122Z,21.12
2024-03-15T01:35:34.254Z,21.01
2024-03-15T01:38:07.388Z,20.81
2024-03-15T01:40:40.229Z,20.67
2024-03-15T01:43:16.153Z,20.53
2024-03-15T01:45:49.770Z,20.66
2024-03-15T01:48:24.052Z,20.70
2024-03-15T01:50:57.031Z,20.73
2024-03-15T01:53:31.187Z,20.83
2024-03-15T01:56:04.570Z,20.81
2024-03-15T01:58:38.493Z,20.83
2024-03-15T02:01:12.747Z,20.85
2024-03-15T02:03:47.587Z,20.84
2024-03-15T02:06:22.799Z,20.82
2024-03-15T02:08:57.042Z,20.79
2024-03-15T02:11:30.217Z,20.93
2024-03-15T02:14:02.967Z,20.92
2024-03-15T02:16:35.712Z,20.79
2024-03-15T02:19:08.787Z,20.75
2024-03-15T02:21:41.502Z,20.70
2024-03-15T02:24:14.279Z,20.66
2024-03-15T02:26:47.190Z,20.63
2024-03-15T02:29:20.896Z,20.48
2024-03-15T02:31:54.155Z,20.52
2024-03-15T02:34:27.299Z,20.63
2024-03-15T02:37:01.216Z,20.50
2024-03-15T02:39:35.579Z,20.77
2024-03-15T02:42:08.528Z,20.38
2024-03-15T02:44:41.604Z,20.58
2024-03-15T02:47:14.370Z,20.72
2024-03-15T02:49:47.268Z,20.73
2024-03-15T02:52:20.098Z,20.86
2024-03-15T02:54:52.869Z,20.78
2024-03-15T02:57:26.281Z,20.86
2024-03-15T02:59:59.698Z,20.81
2024-03-15T03:02:32.614Z,20.78
2024-03-15T03:05:08.299Z,20.73
2024-03-15T03:07:41.195Z,20.78
2024-03-15T03:10:14.072Z,20.90
2024-03-15T03:12:46.969Z,20.47
2024-03-15T03:15:20.361Z,20.56
2024-03-15T03:17:53.169Z,20.71
2024-03-15T03:20:26.536Z,20.75
2024-03-15T03:22:59.288Z,20.79
2024-03-15T03:25:34.562Z,20.81
2024-03-15T03:28:07.299Z,20.78
2024-03-15T03:30:40.367Z,20.80
2024-03-15T03:33:14.235Z,20.81
2024-03-15T03:35:47.542Z,20.79
2024-03-15T03:38:22.961Z,20.73
2024-03-15T03:40:55.715Z,20.65
2024-03-15T03:43:28.947Z,20.64
2024-03-15T03:46:02.081Z,20.63
2024-03-15T03:48:35.636Z,20.61
2024-03-15T03:51:08.597Z,20.61
2024-03-15T03:53:42.348Z,20.60
2024-03-15T03:56:15.527Z,20.60
2024-03-15T03:58:49.808Z,20.61
2024-03-15T04:01:22.651Z,20.61
2024-03-15T04:03:55.536Z,20.54
2024-03-15T04:06:29.312Z,20.42
2024-03-15T04:09:02.882Z,20.42
2024-03-15T04:11:35.720Z,20.35
2024-03-15T04:14:09.703Z,20.39
2024-03-15T04:16:44.753Z,20.38
2024-03-15T04:19:17.563Z,20.39
2024-03-15T04:21:50.332Z,20.38
2024-03-15T04:24:23.687Z,20.40
2024-03-15T04:26:56.861Z,20.40
2024-03-15T04:29:31.398Z,20.39
2024-03-15T04:32:04.295Z,20.41
2024-03-15T04:34:38.480Z,20.55
2024-03-15T04:37:11.827Z,20.54
2024-03-15T04:39:44.741Z,20.56
2024-03-15T04:42:17.638Z,20.56
2024-03-15T04:44:50.483Z,20.55
2024-03-15T04:47:24.417Z,20.54
2024-03-15T04:50:00.818Z,20.49
2024-03-15T04:52:34.304Z,20.50
2024-03-15T04:55:07.282Z,20.47
2024-03-15T04:57:41.654Z,20.49
2024-03-15T05:00:20.709Z,20.49
2024-03-15T05:02:58.941Z,20.50
2024-03-15T05:05:32.915Z,20.50
2024-03-15T05:08:07.882Z,20.48
2024-03-15T05:10:40.937Z,20.49
2024-03-15T05:13:13.863Z,20.43
2024-03-15T05:15:46.672Z,20.40
2024-03-15T05:18:20.372Z,20.36
2024-03-15T05:20:54.712Z,20.35
2024-03-15T05:23:27.405Z,20.24
2024-03-15T05:26:00.138Z,20.26
2024-03-15T05:28:33.647Z,20.28
2024-03-15T05:31:08.344Z,20.31
2024-03-15T05:33:41.872Z,20.26
2024-03-15T05:36:14.664Z,20.23
2024-03-15T05:38:48.361Z,20.21
2024-03-15T05:41:21.127Z,20.33
2024-03-15T05:43:54.152Z,20.17
2024-03-15T05:46:26.893Z,20.27
2024-03-15T05:48:59.928Z,20.30
2024-03-15T05:51:33.382Z,20.27
2024-03-15T05:54:06.186Z,20.27
2024-03-15T05:56:39.357Z,20.22
2024-03-15T05:59:13.713Z,20.31
2024-03-15T06:01:46.430Z,20.30
2024-03-15T06:04:19.373Z,20.29
2024-03-15T06:06:52.387Z,20.40
2024-03-15T06:09:25.959Z,20.22
2024-03-15T06:11:58.974Z,19.96
2024-03-15T06:14:34.247Z,19.84
2024-03-15T06:17:08.663Z,20.21
2024-03-15T06:19:41.504Z,20.28
2024-03-15T06:22:14.709Z,20.27
2024-03-15T06:24:47.735Z,20.26
2024-03-15T06:27:21.689Z,20.24
2024-03-15T06:29:56.529Z,20.21
2024-03-15T06:32:30.397Z,20.18
2024-03-15T06:35:18.245Z,20.19
2024-03-15T06:37:55.560Z,20.24
2024-03-15T06:40:43.938Z,20.21
2024-03-15T06:43:36.595Z,20.21
2024-03-15T06:46:21.571Z,20.15
2024-03-15T06:48:58.372Z,20.21
2024-03-15T06:51:48.980Z,20.17
2024-03-15T06:54:21.881Z,20.20
2024-03-15T06:56:57.121Z,20.29
2024-03-15T06:59:30.027Z,20.10
2024-03-15T07:02:03.479Z,20.13
2024-03-15T07:04:36.431Z,20.12
2024-03-15T07:07:09.381Z,20.09
2024-03-15T07:09:43.004Z,20.07
2024-03-15T07:12:16.650Z,20.06
2024-03-15T07:14:54.073Z,20.09
2024-03-15T07:17:27.689Z,20.09
2024-03-15T07:20:01.694Z,20.34
2024-03-15T07:22:34.582Z,20.34
2024-03-15T07:25:08.249Z,20.35
2024-03-15T07:27:42.085Z,20.34
2024-03-15T07:30:15.110Z,20.31
2024-03-15T07:32:48.029Z,20.34
2024-03-15T07:35:21.091Z,20.37
2024-03-15T07:37:55.122Z,20.38
2024-03-15T07:40:27.855Z,20.40
2024-03-15T07:43:01.172Z,20.38
2024-03-15T07:45:34.938Z,20.38
2024-03-15T07:48:08.666Z,20.39
2024-03-15T07:50:42.561Z,20.46
2024-03-15T07:53:16.377Z,20.49
2024-03-15T07:55:49.218Z,20.51
2024-03-15T07:58:22.261Z,20.55
2024-03-15T08:00:55.237Z,20.62
2024-03-15T08:03:28.255Z,20.65
2024-03-15T08:06:02.612Z,20.64
2024-03-15T08:08:36.421Z,20.60
2024-03-15T08:11:09.488Z,20.63
2024-03-15T08:13:42.850Z,20.66
2024-03-15T08:16:24.698Z,20.70
2024-03-15T08:18:57.744Z,20.76
2024-03-15T08:21:30.896Z,20.82
2024-03-15T08:24:05.631Z,20.85
2024-03-15T08:26:40.973Z,20.88
2024-03-15T08:29:14.554Z,20.78
2024-03-15T08:31:48.756Z,20.85
2024-03-15T08:34:23.140Z,20.91
2024-03-15T08:36:57.897Z,20.90
2024-03-15T08:39:31.172Z,20.88
2024-03-15T08:42:04.029Z,20.89
2024-03-15T08:44:36.998Z,20.92
2024-03-15T08:47:10.198Z,20.90
2024-03-15T08:49:43.321Z,20.93
2024-03-15T08:52:16.974Z,20.88
2024-03-15T08:54:50.075Z,20.89
2024-03-15T08:57:24.194Z,20.83
2024-03-15T08:59:58.272Z,20.76
2024-03-15T09:02:31.067Z,20.73
2024-03-15T09:05:07.460Z,20.71
2024-03-15T09:07:40.474Z,20.72
2024-03-15T09:10:16.740Z,20.74
2024-03-15T09:12:49.556Z,20.72
2024-03-15T09:15:23.524Z,20.80
2024-03-15T09:18:00.073Z,20.70
2024-03-15T09:20:36.954Z,20.75
2024-03-15T09:23:12.416Z,20.77
2024-03-15T09:25:45.765Z,20.80
2024-03-15T09:28:19.796Z,20.86
2024-03-15T09:31:04.019Z,20.85
2024-03-15T09:33:44.786Z,20.78
2024-03-15T09:36:19.701Z,20.85
2024-03-15T09:38:55.246Z,20.85
2024-03-15T09:41:28.107Z,20.83
2024-03-15T09:44:01.026Z,20.88
2024-03-15T09:46:34.164Z,20.94
2024-03-15T09:49:07.148Z,20.96
2024-03-15T09:51:41.434Z,21.01
2024-03-15T09:54:14.567Z,20.93
2024-03-15T09:56:48.495Z,20.81
2024-03-15T09:59:22.530Z,20.86
2024-03-15T10:01:55.842Z,20.99
2024-03-15T10:04:28.597Z,20.90
2024-03-15T10:07:02.976Z,20.90
2024-03-15T10:09:38.824Z,20.88
2024-03-15T10:12:11.830Z,20.91
2024-03-15T10:14:44.593Z,20.94
2024-03-15T10:17:17.344Z,20.93
2024-03-15T10:19:50.372Z,20.82
2024-03-15T10:22:23.094Z,20.84
2024-03-15T10:24:55.925Z,21.00
2024-03-15T10:27:29.034Z,21.09
2024-03-15T10:30:02.415Z,21.15
2024-03-15T10:32:35.233Z,21.09
2024-03-15T10:35:08.112Z,21.15
2024-03-15T10:37:41.789Z,21.13
2024-03-15T10:40:14.810Z,21.21
2024-03-15T10:42:48.761Z,21.22
2024-03-15T10:45:21.770Z,21.24
2024-03-15T10:47:55.485Z,21.24
2024-03-15T10:50:28.619Z,21.24
2024-03-15T10:53:02.520Z,21.27
2024-03-15T10:55:35.388Z,21.34
2024-03-15T10:58:09.427Z,21.37
2024-03-15T11:00:42.406Z,21.36
2024-03-15T11:03:16.441Z,21.36
2024-03-15T11:05:50.513Z,21.33
2024-03-15T11:08:23.772Z,21.02
2024-03-15T11:10:56.876Z,20.93
2024-03-15T11:13:33.394Z,20.90
2024-03-15T11:16:19.557Z,21.06
2024-03-15T11:18:53.803Z,21.08
2024-03-15T11:21:26.707Z,21.38
2024-03-15T11:24:07.678Z,21.41
2024-03-15T11:26:40.475Z,21.29
2024-03-15T11:29:18.058Z,21.14
2024-03-15T11:31:51.162Z,21.28
2024-03-15T11:34:24.287Z,21.13
2024-03-15T11:36:57.269Z,21.27
2024-03-15T11:39:30.100Z,21.33
2024-03-15T11:42:03.443Z,21.17
2024-03-15T11:44:36.742Z,21.41
2024-03-15T11:47:09.873Z,21.45
2024-03-15T11:49:42.568Z,21.48
2024-03-15T11:52:15.454Z,21.52
2024-03-15T11:54:53.095Z,21.57
2024-03-15T11:57:27.586Z,21.59
2024-03-15T12:00:00.489Z,21.61
2024-03-15T12:02:33.225Z,21.65
2024-03-15T12:05:06.594Z,21.71
2024-03-15T12:07:39.558Z,21.70
2024-03-15T12:10:14.924Z,21.46
2024-03-15T12:12:48.135Z,21.55
2024-03-15T12:15:30.452Z,21.64
2024-03-15T12:18:03.895Z,21.66
2024-03-15T12:20:37.578Z,21.64
2024-03-15T12:23:10.385Z,21.61
2024-03-15T12:25:43.154Z,21.58
2024-03-15T12:28:16.238Z,21.44
2024-03-15T12:30:50.238Z,21.65
2024-03-15T12:33:23.625Z,21.74
2024-03-15T12:35:59.228Z,21.75
2024-03-15T12:38:32.224Z,21.71
2024-03-15T12:41:05.496Z,21.73
2024-03-15T12:43:39.983Z,21.92
2024-03-15T12:46:12.892Z,22.22
2024-03-15T12:48:45.746Z,22.33
2024-03-15T12:51:18.710Z,22.45
2024-03-15T12:53:51.675Z,22.38
2024-03-15T12:56:24.888Z,22.49
2024-03-15T12:58:58.029Z,22.67
2024-03-15T13:01:32.492Z,22.75
2024-03-15T13:04:06.037Z,22.76
2024-03-15T13:06:39.601Z,22.73
2024-03-15T13:09:59.770Z,22.36
2024-03-15T13:13:15.398Z,22.37
2024-03-15T13:15:49.285Z,22.61
2024-03-15T13:18:23.012Z,22.58
2024-03-15T13:20:56.913Z,22.61
2024-03-15T13:23:30.049Z,22.88
2024-03-15T13:26:03.488Z,22.79
2024-03-15T13:28:36.628Z,22.55
2024-03-15T13:31:10.068Z,22.80
2024-03-15T13:33:43.913Z,22.85
2024-03-15T13:36:16.958Z,22.94
2024-03-15T13:38:50.173Z,23.08
2024-03-15T13:41:25.734Z,23.05
2024-03-15T13:44:00.325Z,22.94
2024-03-15T13:46:34.012Z,23.03
2024-03-15T13:49:11.722Z,23.07
2024-03-15T13:51:44.823Z,23.14
2024-03-15T13:54:17.824Z,23.14
2024-03-15T13:56:51.974Z,23.16
2024-03-15T13:59:29.548Z,23.14
2024-03-15T14:02:02.542Z,23.02
2024-03-15T14:04:35.613Z,23.02
2024-03-15T14:07:08.927Z,23.40
2024-03-15T14:09:42.215Z,23.25
2024-03-15T14:12:15.164Z,23.24
2024-03-15T14:14:48.213Z,23.37
2024-03-15T14:17:21.476Z,23.29
2024-03-15T14:19:54.887Z,23.19
2024-03-15T14:22:27.922Z,23.46
2024-03-15T14:25:01.535Z,23.27
2024-03-15T14:27:34.542Z,23.09
2024-03-15T14:30:10.920Z,23.37
2024-03-15T14:32:44.758Z,23.30
2024-03-15T14:35:18.875Z,23.47
2024-03-15T14:37:51.991Z,23.42
2024-03-15T14:40:26.258Z,23.46
2024-03-15T14:42:59.386Z,23.42
2024-03-15T14:45:34.678Z,23.55
2024-03-15T14:48:14.610Z,23.53
2024-03-15T14:50:51.972Z,23.42
2024-03-15T14:53:25.144Z,23.71
2024-03-15T14:55:58.366Z,23.65
2024-03-15T14:58:31.502Z,23.60
2024-03-15T15:01:04.702Z,23.70
2024-03-15T15:03:38.217Z,23.67
2024-03-15T15:06:11.812Z,23.57
2024-03-15T15:08:46.024Z,23.85
2024-03-15T15:11:19.123Z,23.95
2024-03-15T15:13:53.280Z,23.84
2024-03-15T15:16:28.051Z,23.94
2024-03-15T15:19:01.449Z,23.74
2024-03-15T15:21:35.033Z,23.55
2024-03-15T15:24:08.070Z,23.56
2024-03-15T15:26:41.059Z,23.58
2024-03-15T15:29:14.173Z,23.47
2024-03-15T15:31:47.270Z,23.27
2024-03-15T15:34:21.781Z,23.39
2024-03-15T15:36:54.968Z,23.32
2024-03-15T15:39:27.779Z,23.41
2024-03-15T15:42:01.620Z,23.31
2024-03-15T15:44:34.777Z,23.16
2024-03-15T15:47:08.755Z,23.07
2024-03-15T15:49:44.425Z,23.39
2024-03-15T15:52:17.569Z,23.55
2024-03-15T15:54:50.600Z,23.26
2024-03-15T15:57:24.650Z,23.48
2024-03-15T15:59:57.734Z,23.09
2024-03-15T16:02:30.688Z,23.15
2024-03-15T16:05:03.884Z,23.18
2024-03-15T16:07:37.291Z,23.35
2024-03-15T16:10:12.569Z,22.97
2024-03-15T16:12:46.288Z,23.14
2024-03-15T16:15:19.674Z,22.89
2024-03-15T16:17:53.289Z,23.02
2024-03-15T16:20:29.087Z,22.92
2024-03-15T16:23:03.204Z,22.80
2024-03-15T16:25:36.193Z,22.67
2024-03-15T16:28:09.812Z,22.59
2024-03-15T16:30:42.950Z,22.51
2024-03-15T16:33:16.459Z,22.32
2024-03-15T16:35:49.733Z,22.24
2024-03-15T16:38:22.881Z,22.14
2024-03-15T16:40:55.837Z,22.17
2024-03-15T16:43:28.717Z,22.32
2024-03-15T16:46:01.730Z,22.15
2024-03-15T16:48:34.937Z,22.35
2024-03-15T16:51:08.732Z,22.32
2024-03-15T16:53:42.023Z,22.53
2024-03-15T16:56:15.081Z,22.23
2024-03-15T16:58:49.434Z,22.60
2024-03-15T17:01:23.069Z,22.41
2024-03-15T17:03:57.090Z,22.36
2024-03-15T17:06:30.388Z,22.20
2024-03-15T17:09:04.774Z,22.24
2024-03-15T17:11:38.474Z,22.12
2024-03-15T17:14:11.792Z,22.24
2024-03-15T17:16:44.854Z,22.24
2024-03-15T17:19:18.545Z,22.15
2024-03-15T17:21:51.681Z,22.27
2024-03-15T17:24:26.043Z,22.15
2024-03-15T17:26:59.651Z,21.98
2024-03-15T17:29:33.501Z,21.99
2024-03-15T17:32:06.584Z,22.01
2024-03-15T17:34:40.122Z,22.04
2024-03-15T17:37:13.692Z,22.16
2024-03-15T17:39:48.344Z,22.06
2024-03-15T17:42:21.664Z,22.10
2024-03-15T17:44:54.684Z,22.06
2024-03-15T17:47:27.737Z,22.14
2024-03-15T17:50:00.773Z,21.82
2024-03-15T17:52:33.966Z,21.77
2024-03-15T17:55:09.739Z,21.76
2024-03-15T17:57:42.920Z,21.88
2024-03-15T18:00:17.048Z,21.77
2024-03-15T18:02:50.643Z,21.72
2024-03-15T18:05:23.987Z,21.73
2024-03-15T18:07:57.005Z,21.58
2024-03-15T18:10:30.806Z,21.59
2024-03-15T18:13:03.865Z,21.61
2024-03-15T18:15:39.035Z,21.63
2024-03-15T18:18:12.873Z,21.71
2024-03-15T18:20:48.155Z,21.62
2024-03-15T18:23:21.236Z,21.45
2024-03-15T18:25:54.251Z,21.33
2024-03-15T18:28:27.266Z,21.58
2024-03-15T18:31:00.531Z,21.63
2024-03-15T18:33:33.611Z,21.61
2024-03-15T18:36:06.939Z,21.38
2024-03-15T18:38:39.869Z,21.42
2024-03-15T18:41:13.196Z,21.33
2024-03-15T18:43:46.242Z,21.22
2024-03-15T18:46:19.226Z,21.19
2024-03-15T18:48:51.992Z,21.19
2024-03-15T18:51:25.043Z,21.06
2024-03-15T18:53:58.295Z,21.02
2024-03-15T18:56:33.084Z,20.99
2024-03-15T18:59:07.926Z,20.97
2024-03-15T19:01:41.065Z,20.95
2024-03-15T19:04:14.093Z,20.88
2024-03-15T19:06:46.912Z,20.91
2024-03-15T19:09:21.421Z,21.12
2024-03-15T19:11:54.463Z,20.98
2024-03-15T19:14:29.951Z,20.82
2024-03-15T19:17:03.004Z,21.06
2024-03-15T19:19:36.539Z,20.89
2024-03-15T19:22:09.632Z,20.95
2024-03-15T19:24:43.502Z,20.69
2024-03-15T19:27:16.553Z,20.62
2024-03-15T19:29:51.694Z,20.63
2024-03-15T19:32:28.502Z,20.59
2024-03-15T19:35:01.842Z,20.64
2024-03-15T19:37:35.551Z,20.78
2024-03-15T19:40:10.358Z,20.82
2024-03-15T19:42:44.657Z,20.78
2024-03-15T19:45:18.915Z,20.74
2024-03-15T19:47:52.019Z,20.68
2024-03-15T19:50:25.677Z,20.65
2024-03-15T19:52:58.692Z,20.56
2024-03-15T19:55:33.028Z,20.59
2024-03-15T19:58:07.191Z,20.49
2024-03-15T20:00:40.290Z,20.34
2024-03-15T20:03:13.379Z,20.53
2024-03-15T20:05:47.281Z,20.43
2024-03-15T20:08:20.381Z,20.29
2024-03-15T20:10:53.456Z,20.33
2024-03-15T20:13:26.534Z,20.13
2024-03-15T20:15:59.634Z,20.36
2024-03-15T20:18:33.197Z,20.36
2024-03-15T20:21:06.501Z,20.13
2024-03-15T20:23:40.058Z,20.18
2024-03-15T20:26:13.163Z,20.34
2024-03-15T20:28:46.074Z,20.04
2024-03-15T20:31:19.034Z,20.06
2024-03-15T20:33:52.240Z,20.05
2024-03-15T20:36:25.560Z,20.00
2024-03-15T20:39:01.136Z,20.02
2024-03-15T20:41:34.243Z,19.96
2024-03-15T20:44:07.473Z,19.93
2024-03-15T20:46:40.577Z,19.92
2024-03-15T20:49:16.930Z,19.71
2024-03-15T20:51:50.437Z,19.90
2024-03-15T20:54:23.253Z,19.87
2024-03-15T20:56:56.352Z,19.76
2024-03-15T20:59:30.027Z,19.74
2024-03-15T21:02:09.729Z,19.49
2024-03-15T21:04:45.715Z,19.57
2024-03-15T21:07:20.514Z,19.53
2024-03-15T21:09:53.612Z,19.75
2024-03-15T21:12:29.876Z,19.67
2024-03-15T21:15:04.417Z,19.83
2024-03-15T21:17:38.373Z,19.64
2024-03-15T21:20:16.651Z,19.71
2024-03-15T21:22:51.126Z,19.85
2024-03-15T21:25:29.873Z,19.71
2024-03-15T21:28:05.530Z,19.71
2024-03-15T21:30:38.950Z,19.77
2024-03-15T21:33:12.208Z,19.79
2024-03-15T21:35:49.011Z,19.41
2024-03-15T21:38:22.082Z,19.71
2024-03-15T21:40:59.096Z,19.55
2024-03-15T21:43:32.247Z,19.68
2024-03-15T21:46:06.203Z,19.78
2024-03-15T21:48:39.950Z,19.88
2024-03-15T21:51:13.545Z,19.82
2024-03-15T21:53:47.286Z,19.97
2024-03-15T21:56:21.548Z,19.94
2024-03-15T21:58:56.014Z,19.85
2024-03-15T22:01:31.242Z,19.86
2024-03-15T22:04:06.408Z,19.91
2024-03-15T22:06:42.557Z,19.92
2024-03-15T22:09:20.058Z,19.61
2024-03-15T22:11:54.081Z,19.47
2024-03-15T22:14:27.276Z,19.40
2024-03-15T22:17:00.293Z,19.42
2024-03-15T22:19:33.935Z,19.75
2024-03-15T22:22:07.254Z,19.83
2024-03-15T22:24:42.392Z,19.83
2024-03-15T22:27:16.308Z,19.77
2024-03-15T22:29:49.310Z,19.88
2024-03-15T22:32:22.568Z,19.80
2024-03-15T22:34:55.490Z,19.81
2024-03-15T22:37:28.195Z,19.71
2024-03-15T22:40:01.233Z,19.75
2024-03-15T22:42:34.422Z,19.91
2024-03-15T22:45:07.651Z,19.86
2024-03-15T22:47:40.697Z,19.69
2024-03-15T22:50:14.867Z,19.52
2024-03-15T22:52:48.792Z,19.65
2024-03-15T22:55:21.776Z,19.60
2024-03-15T22:57:55.058Z,19.78
2024-03-15T23:00:32.483Z,19.65
2024-03-15T23:03:07.653Z,19.67
2024-03-15T23:05:40.649Z,19.65
2024-03-15T23:08:15.341Z,19.61
2024-03-15T23:10:48.464Z,19.66
2024-03-15T23:13:21.558Z,19.54
2024-03-15T23:15:55.800Z,19.62
2024-03-15T23:18:29.144Z,19.64
2024-03-15T23:21:03.180Z,19.72
2024-03-15T23:23:38.505Z,19.64
2024-03-15T23:26:11.546Z,19.67
2024-03-15T23:28:44.834Z,19.76
2024-03-15T23:31:18.108Z,19.77
2024-03-15T23:33:51.128Z,19.72
2024-03-15T23:36:24.749Z,19.67
2024-03-15T23:38:57.879Z,19.50
2024-03-15T23:41:33.519Z,19.48
2024-03-15T23:44:06.955Z,19.49
2024-03-15T23:46:41.127Z,19.56
2024-03-15T23:49:14.565Z,19.67
2024-03-15T23:51:47.634Z,19.75
2024-03-15T23:54:21.215Z,19.66
2024-03-15T23:56:55.095Z,19.66
2024-03-15T23:59:29.098Z,19.69
